createdAt,value
2023-05-16T00:00:44.191Z,100.00
2023-05-16T00:03:12.207Z,100.00
2023-05-16T00:05:39.049Z,100.00
2023-05-16T00:08:05.730Z,100.00
2023-05-16T00:10:32.035Z,100.00
2023-05-16T00:12:58.667Z,100.00
2023-05-16T00:15:25.115Z,100.00
2023-05-16T00:17:51.836Z,100.00
2023-05-16T00:20:18.881Z,100.00
2023-05-16T00:22:46.171Z,100.00
2023-05-16T00:25:12.509Z,100.00
2023-05-16T00:27:38.834Z,100.00
2023-05-16T00:30:05.512Z,100.00
2023-05-16T00:32:32.059Z,100.00
2023-05-16T00:34:58.663Z,100.00
2023-05-16T00:37:25.011Z,100.00
2023-05-16T00:39:51.338Z,100.00
2023-05-16T00:42:19.263Z,100.00
2023-05-16T00:44:46.024Z,100.00
2023-05-16T00:47:12.378Z,100.00
2023-05-16T00:49:38.933Z,100.00
2023-05-16T00:52:05.528Z,100.00
2023-05-16T00:54:31.982Z,100.00
2023-05-16T00:56:58.398Z,100.00
2023-05-16T00:59:25.400Z,100.00
2023-05-16T01:01:52.491Z,100.00
2023-05-16T01:04:19.069Z,100.00
2023-05-16T01:06:46.090Z,100.00
2023-05-16T01:09:12.762Z,100.00
2023-05-16T01:11:46.913Z,100.00
2023-05-16T01:14:25.050Z,100.00
2023-05-16T01:17:03.803Z,100.00
2023-05-16T01:19:38.187Z,100.00
2023-05-16T01:22:17.168Z,100.00
2023-05-16T01:24:49.532Z,100.00
2023-05-16T01:27:16.644Z,100.00
2023-05-16T01:29:42.933Z,100.00
2023-05-16T01:32:09.471Z,100.00
2023-05-16T01:34:35.904Z,100.00
2023-05-16T01:37:13.636Z,100.00
2023-05-16T01:39:45.931Z,100.00
2023-05-16T01:42:14.243Z,100.00
2023-05-16T01:44:40.525Z,100.00
2023-05-16T01:47:11.853Z,100.00
2023-05-16T01:49:46.319Z,100.00
2023-05-16T01:52:15.046Z,100.00
2023-05-16T01:54:44.897Z,100.00
2023-05-16T01:57:12.969Z,100.00
2023-05-16T01:59:40.548Z,100.00
2023-05-16T02:02:06.958Z,100.00
2023-05-16T02:04:33.365Z,100.00
2023-05-16T02:07:01.006Z,100.00
2023-05-16T02:09:27.631Z,100.00
2023-05-16T02:11:53.935Z,100.00
2023-05-16T02:14:20.287Z,100.00
2023-05-16T02:16:46.813Z,100.00
2023-05-16T02:19:13.307Z,100.00
2023-05-16T02:21:39.927Z,100.00
2023-05-16T02:24:06.343Z,100.00
2023-05-16T02:26:32.678Z,100.00
2023-05-16T02:28:59.002Z,100.00
2023-05-16T02:31:32.402Z,100.00
2023-05-16T02:33:59.806Z,100.00
2023-05-16T02:36:26.380Z,100.00
2023-05-16T02:38:52.763Z,100.00
2023-05-16T02:41:19.173Z,100.00
2023-05-16T02:43:46.987Z,100.00
2023-05-16T02:46:27.337Z,100.00
2023-05-16T02:48:54.166Z,100.00
2023-05-16T02:51:21.651Z,100.00
2023-05-16T02:53:48.110Z,100.00
2023-05-16T02:56:14.885Z,100.00
2023-05-16T02:58:41.958Z,100.00
2023-05-16T03:01:08.731Z,100.00
2023-05-16T03:03:36.445Z,100.00
2023-05-16T03:06:03.083Z,100.00
2023-05-16T03:08:29.550Z,100.00
2023-05-16T03:10:55.869Z,100.00
2023-05-16T03:13:22.955Z,100.00
2023-05-16T03:15:49.826Z,100.00
2023-05-16T03:18:16.155Z,100.00
2023-05-16T03:20:42.454Z,100.00
2023-05-16T03:23:08.848Z,100.00
2023-05-16T03:25:38.285Z,100.00
2023-05-16T03:28:05.407Z,100.00
2023-05-16T03:30:31.727Z,100.00
2023-05-16T03:32:58.153Z,100.00
2023-05-16T03:35:24.722Z,100.00
2023-05-16T03:37:51.142Z,100.00
2023-05-16T03:40:18.025Z,100.00
2023-05-16T03:42:44.345Z,100.00
2023-05-16T03:45:11.031Z,100.00
2023-05-16T03:47:37.511Z,100.00
2023-05-16T03:50:04.456Z,100.00
2023-05-16T03:52:30.743Z,100.00
2023-05-16T03:54:57.223Z,100.00
2023-05-16T03:57:23.670Z,100.00
2023-05-16T03:59:49.998Z,100.00
2023-05-16T04:02:18.686Z,100.00
2023-05-16T04:04:45.847Z,100.00
2023-05-16T04:07:12.385Z,100.00
2023-05-16T04:09:38.813Z,100.00
2023-05-16T04:12:06.666Z,100.00
2023-05-16T04:14:33.992Z,100.00
2023-05-16T04:17:00.470Z,100.00
2023-05-16T04:19:26.943Z,100.00
2023-05-16T04:21:53.331Z,100.00
2023-05-16T04:24:19.682Z,100.00
2023-05-16T04:26:46.341Z,100.00
2023-05-16T04:29:14.284Z,100.00
2023-05-16T04:31:40.682Z,100.00
2023-05-16T04:34:07.057Z,100.00
2023-05-16T04:36:35.471Z,100.00
2023-05-16T04:39:01.784Z,100.00
2023-05-16T04:41:28.418Z,100.00
2023-05-16T04:43:54.778Z,100.00
2023-05-16T04:46:21.255Z,100.00
2023-05-16T04:48:47.639Z,100.00
2023-05-16T04:51:13.949Z,100.00
2023-05-16T04:53:40.453Z,100.00
2023-05-16T04:56:07.850Z,100.00
2023-05-16T04:58:34.342Z,100.00
2023-05-16T05:01:01.902Z,100.00
2023-05-16T05:03:28.380Z,100.00
2023-05-16T05:05:54.686Z,100.00
2023-05-16T05:08:21.314Z,100.00
2023-05-16T05:10:47.770Z,100.00
2023-05-16T05:13:14.100Z,100.00
2023-05-16T05:15:40.616Z,100.00
2023-05-16T05:18:07.017Z,100.00
2023-05-16T05:20:33.385Z,100.00
2023-05-16T05:22:59.695Z,100.00
2023-05-16T05:25:26.577Z,100.00
2023-05-16T05:27:53.164Z,100.00
2023-05-16T05:30:19.462Z,100.00
2023-05-16T05:32:45.914Z,100.00
2023-05-16T05:35:12.241Z,100.00
2023-05-16T05:37:38.687Z,100.00
2023-05-16T05:40:05.441Z,100.00
2023-05-16T05:42:31.762Z,100.00
2023-05-16T05:44:58.062Z,100.00
2023-05-16T05:47:24.545Z,100.00
2023-05-16T05:49:50.952Z,100.00
2023-05-16T05:52:17.279Z,100.00
2023-05-16T05:54:43.605Z,100.00
2023-05-16T05:57:09.951Z,100.00
2023-05-16T05:59:36.352Z,100.00
2023-05-16T06:02:02.769Z,100.00
2023-05-16T06:04:29.145Z,100.00
2023-05-16T06:06:55.546Z,100.00
2023-05-16T06:09:22.128Z,100.00
2023-05-16T06:11:48.686Z,100.00
2023-05-16T06:14:16.099Z,100.00
2023-05-16T06:16:42.455Z,100.00
2023-05-16T06:19:10.074Z,100.00
2023-05-16T06:21:36.519Z,100.00
2023-05-16T06:24:03.297Z,100.00
2023-05-16T06:26:29.691Z,100.00
2023-05-16T06:28:56.019Z,100.00
2023-05-16T06:31:22.444Z,100.00
2023-05-16T06:33:48.800Z,100.00
2023-05-16T06:36:15.138Z,100.00
2023-05-16T06:38:41.520Z,100.00
2023-05-16T06:41:07.922Z,100.00
2023-05-16T06:43:34.412Z,100.00
2023-05-16T06:46:00.892Z,100.00
2023-05-16T06:48:27.334Z,100.00
2023-05-16T06:50:53.856Z,100.00
2023-05-16T06:53:20.705Z,100.00
2023-05-16T06:55:47.381Z,100.00
2023-05-16T06:58:13.926Z,100.00
2023-05-16T07:00:40.931Z,100.00
2023-05-16T07:03:07.365Z,100.00
2023-05-16T07:05:33.864Z,100.00
2023-05-16T07:08:00.296Z,100.00
2023-05-16T07:10:27.368Z,100.00
2023-05-16T07:12:53.798Z,100.00
2023-05-16T07:15:20.157Z,100.00
2023-05-16T07:17:46.550Z,100.00
2023-05-16T07:20:14.774Z,100.00
2023-05-16T07:22:41.249Z,100.00
2023-05-16T07:25:12.488Z,100.00
2023-05-16T07:27:41.448Z,100.00
2023-05-16T07:30:09.655Z,100.00
2023-05-16T07:32:36.157Z,100.00
2023-05-16T07:35:02.609Z,100.00
2023-05-16T07:37:31.087Z,100.00
2023-05-16T07:39:57.674Z,100.00
2023-05-16T07:42:24.772Z,100.00
2023-05-16T07:44:51.164Z,100.00
2023-05-16T07:47:17.562Z,100.00
2023-05-16T07:49:43.941Z,100.00
2023-05-16T07:52:10.451Z,100.00
2023-05-16T07:54:37.772Z,100.00
2023-05-16T07:57:04.209Z,100.00
2023-05-16T07:59:30.885Z,100.00
2023-05-16T08:01:57.554Z,100.00
2023-05-16T08:04:23.952Z,100.00
2023-05-16T08:06:50.416Z,100.00
2023-05-16T08:09:16.822Z,100.00
2023-05-16T08:11:45.438Z,100.00
2023-05-16T08:14:11.987Z,100.00
2023-05-16T08:16:38.456Z,100.00
2023-05-16T08:19:04.959Z,100.00
2023-05-16T08:21:31.925Z,100.00
2023-05-16T08:23:58.375Z,100.00
2023-05-16T08:26:25.422Z,100.00
2023-05-16T08:28:52.017Z,100.00
2023-05-16T08:31:18.733Z,100.00
2023-05-16T08:33:45.197Z,100.00
2023-05-16T08:36:11.553Z,100.00
2023-05-16T08:38:37.970Z,100.00
2023-05-16T08:41:04.556Z,100.00
2023-05-16T08:43:30.977Z,100.00
2023-05-16T08:45:57.346Z,100.00
2023-05-16T08:48:24.322Z,100.00
2023-05-16T08:50:51.804Z,100.00
2023-05-16T08:53:21.611Z,100.00
2023-05-16T08:55:48.565Z,100.00
2023-05-16T08:58:15.098Z,100.00
2023-05-16T09:00:41.836Z,100.00
2023-05-16T09:03:08.356Z,100.00
2023-05-16T09:05:34.861Z,100.00
2023-05-16T09:08:01.264Z,100.00
2023-05-16T09:10:27.826Z,100.00
2023-05-16T09:12:54.208Z,100.00
2023-05-16T09:15:21.613Z,100.00
2023-05-16T09:17:49.107Z,100.00
2023-05-16T09:20:16.843Z,100.00
2023-05-16T09:22:55.504Z,100.00
2023-05-16T09:25:30.228Z,100.00
2023-05-16T09:27:58.904Z,100.00
2023-05-16T09:30:30.027Z,100.00
2023-05-16T09:32:56.523Z,100.00
2023-05-16T09:35:35.053Z,100.00
2023-05-16T09:38:18.141Z,100.00
2023-05-16T09:40:44.965Z,100.00
2023-05-16T09:43:14.458Z,100.00
2023-05-16T09:45:45.054Z,100.00
2023-05-16T09:48:13.323Z,100.00
2023-05-16T09:50:40.015Z,100.00
2023-05-16T09:53:06.433Z,100.00
2023-05-16T09:55:32.867Z,100.00
2023-05-16T09:57:59.338Z,100.00
2023-05-16T10:00:33.092Z,100.00
2023-05-16T10:03:03.477Z,100.00
2023-05-16T10:05:31.285Z,100.00
2023-05-16T10:07:57.933Z,100.00
2023-05-16T10:10:25.193Z,100.00
2023-05-16T10:12:52.046Z,100.00
2023-05-16T10:15:19.566Z,100.00
2023-05-16T10:17:49.206Z,100.00
2023-05-16T10:20:16.107Z,100.00
2023-05-16T10:22:46.555Z,100.00
2023-05-16T10:25:17.796Z,100.00
2023-05-16T10:27:44.632Z,100.00
2023-05-16T10:30:11.514Z,100.00
2023-05-16T10:32:39.483Z,100.00
2023-05-16T10:35:08.625Z,100.00
2023-05-16T10:37:36.678Z,100.00
2023-05-16T10:40:06.892Z,100.00
2023-05-16T10:42:33.757Z,100.00
2023-05-16T10:45:09.930Z,100.00
2023-05-16T10:47:36.407Z,100.00
2023-05-16T10:50:02.973Z,100.00
2023-05-16T10:52:33.798Z,100.00
2023-05-16T10:55:02.042Z,99.41
2023-05-16T10:57:28.429Z,84.44
2023-05-16T10:59:58.401Z,80.93
2023-05-16T11:02:25.141Z,81.92
2023-05-16T11:04:52.487Z,88.06
2023-05-16T11:07:19.714Z,100.00
2023-05-16T11:09:46.498Z,100.00
2023-05-16T11:12:13.287Z,100.00
2023-05-16T11:14:42.540Z,100.00
2023-05-16T11:17:09.034Z,100.00
2023-05-16T11:19:35.507Z,100.00
2023-05-16T11:22:22.273Z,100.00
2023-05-16T11:25:18.055Z,100.00
2023-05-16T11:27:45.736Z,100.00
2023-05-16T11:30:16.252Z,100.00
2023-05-16T11:32:43.980Z,100.00
2023-05-16T11:35:14.697Z,100.00
2023-05-16T11:37:41.677Z,100.00
2023-05-16T11:40:09.878Z,100.00
2023-05-16T11:42:38.143Z,100.00
2023-05-16T11:45:14.542Z,100.00
2023-05-16T11:47:41.469Z,100.00
2023-05-16T11:50:11.659Z,96.79
2023-05-16T11:52:38.432Z,87.53
2023-05-16T11:55:06.363Z,87.20
2023-05-16T11:57:33.314Z,100.00
2023-05-16T12:00:11.265Z,100.00
2023-05-16T12:02:37.778Z,100.00
2023-05-16T12:05:09.774Z,100.00
2023-05-16T12:07:37.032Z,100.00
2023-05-16T12:10:09.724Z,100.00
2023-05-16T12:12:36.831Z,100.00
2023-05-16T12:15:04.068Z,100.00
2023-05-16T12:17:30.962Z,100.00
2023-05-16T12:19:57.806Z,100.00
2023-05-16T12:22:25.732Z,100.00
2023-05-16T12:24:52.276Z,100.00
2023-05-16T12:27:22.869Z,100.00
2023-05-16T12:29:50.121Z,100.00
2023-05-16T12:32:22.295Z,100.00
2023-05-16T12:34:52.513Z,100.00
2023-05-16T12:37:19.227Z,100.00
2023-05-16T12:39:47.519Z,100.00
2023-05-16T12:42:14.391Z,100.00
2023-05-16T12:44:41.057Z,100.00
2023-05-16T12:47:12.158Z,100.00
2023-05-16T12:49:47.894Z,100.00
2023-05-16T12:52:18.391Z,100.00
2023-05-16T12:54:45.053Z,100.00
2023-05-16T12:57:11.603Z,100.00
2023-05-16T12:59:37.981Z,100.00
2023-05-16T13:02:04.657Z,100.00
2023-05-16T13:04:31.653Z,100.00
2023-05-16T13:06:59.934Z,100.00
2023-05-16T13:09:29.991Z,100.00
2023-05-16T13:11:57.637Z,100.00
2023-05-16T13:14:24.012Z,100.00
2023-05-16T13:16:50.355Z,100.00
2023-05-16T13:19:17.116Z,100.00
2023-05-16T13:21:43.610Z,100.00
2023-05-16T13:24:10.400Z,100.00
2023-05-16T13:26:36.801Z,100.00
2023-05-16T13:29:03.169Z,100.00
2023-05-16T13:31:29.588Z,100.00
2023-05-16T13:33:56.087Z,100.00
2023-05-16T13:36:22.477Z,100.00
2023-05-16T13:38:48.872Z,100.00
2023-05-16T13:41:15.434Z,100.00
2023-05-16T13:43:41.778Z,100.00
2023-05-16T13:46:08.196Z,100.00
2023-05-16T13:48:34.597Z,100.00
2023-05-16T13:51:00.957Z,100.00
2023-05-16T13:53:27.450Z,100.00
2023-05-16T13:55:54.406Z,100.00
2023-05-16T13:58:21.035Z,100.00
2023-05-16T14:00:48.465Z,100.00
2023-05-16T14:03:15.228Z,100.00
2023-05-16T14:05:41.766Z,100.00
2023-05-16T14:08:08.254Z,100.00
2023-05-16T14:10:34.611Z,100.00
2023-05-16T14:13:01.042Z,100.00
2023-05-16T14:15:27.598Z,100.00
2023-05-16T14:17:54.137Z,100.00
2023-05-16T14:20:20.673Z,100.00
2023-05-16T14:22:47.037Z,100.00
2023-05-16T14:25:13.446Z,100.00
2023-05-16T14:27:39.801Z,100.00
2023-05-16T14:30:06.653Z,100.00
2023-05-16T14:32:33.210Z,100.00
2023-05-16T14:34:59.575Z,100.00
2023-05-16T14:37:25.997Z,94.97
2023-05-16T14:39:52.967Z,93.62
2023-05-16T14:42:19.330Z,98.58
2023-05-16T14:44:45.757Z,100.00
2023-05-16T14:47:12.281Z,100.00
2023-05-16T14:49:38.656Z,100.00
2023-05-16T14:52:05.253Z,100.00
2023-05-16T14:54:31.739Z,100.00
2023-05-16T14:57:00.048Z,100.00
2023-05-16T14:59:27.196Z,100.00
2023-05-16T15:01:53.680Z,100.00
2023-05-16T15:04:20.157Z,100.00
2023-05-16T15:06:46.590Z,100.00
2023-05-16T15:09:13.546Z,100.00
2023-05-16T15:11:39.909Z,100.00
2023-05-16T15:14:06.432Z,100.00
2023-05-16T15:16:32.921Z,100.00
2023-05-16T15:18:59.646Z,100.00
2023-05-16T15:21:26.085Z,100.00
2023-05-16T15:23:52.714Z,100.00
2023-05-16T15:26:19.145Z,100.00
2023-05-16T15:28:45.576Z,100.00
2023-05-16T15:31:11.980Z,100.00
2023-05-16T15:33:38.514Z,100.00
2023-05-16T15:36:05.341Z,100.00
2023-05-16T15:38:31.770Z,100.00
2023-05-16T15:41:14.214Z,100.00
2023-05-16T15:43:44.518Z,100.00
2023-05-16T15:46:11.500Z,100.00
2023-05-16T15:48:42.758Z,100.00
2023-05-16T15:51:09.446Z,100.00
2023-05-16T15:53:36.083Z,100.00
2023-05-16T15:56:02.554Z,100.00
2023-05-16T15:58:28.950Z,100.00
2023-05-16T16:00:56.042Z,100.00
2023-05-16T16:03:22.766Z,100.00
2023-05-16T16:05:49.828Z,100.00
2023-05-16T16:08:16.434Z,100.00
2023-05-16T16:10:42.858Z,100.00
2023-05-16T16:13:09.782Z,100.00
2023-05-16T16:15:36.600Z,100.00
2023-05-16T16:18:03.360Z,100.00
2023-05-16T16:20:29.883Z,100.00
2023-05-16T16:22:56.292Z,100.00
2023-05-16T16:25:22.881Z,100.00
2023-05-16T16:27:49.499Z,100.00
2023-05-16T16:30:15.893Z,100.00
2023-05-16T16:32:42.394Z,100.00
2023-05-16T16:35:08.891Z,100.00
2023-05-16T16:37:35.867Z,100.00
2023-05-16T16:40:02.277Z,100.00
2023-05-16T16:42:30.424Z,100.00
2023-05-16T16:44:56.978Z,100.00
2023-05-16T16:47:23.384Z,100.00
2023-05-16T16:49:49.776Z,100.00
2023-05-16T16:52:16.120Z,100.00
2023-05-16T16:54:44.455Z,100.00
2023-05-16T16:57:10.870Z,100.00
2023-05-16T16:59:37.324Z,100.00
2023-05-16T17:02:03.796Z,100.00
2023-05-16T17:04:30.409Z,100.00
2023-05-16T17:06:57.715Z,100.00
2023-05-16T17:16:20.240Z,100.00
2023-05-16T17:18:46.690Z,100.00
2023-05-16T17:21:13.234Z,100.00
2023-05-16T17:23:41.684Z,100.00
2023-05-16T17:26:09.924Z,100.00
2023-05-16T17:28:39.655Z,100.00
2023-05-16T17:31:06.071Z,100.00
2023-05-16T17:33:32.900Z,100.00
2023-05-16T17:35:59.243Z,100.00
2023-05-16T17:38:25.695Z,100.00
2023-05-16T17:40:52.238Z,100.00
2023-05-16T17:43:18.607Z,100.00
2023-05-16T17:45:45.005Z,100.00
2023-05-16T17:48:11.467Z,100.00
2023-05-16T17:50:37.955Z,100.00
2023-05-16T17:53:04.876Z,100.00
2023-05-16T17:55:31.327Z,100.00
2023-05-16T17:57:58.183Z,100.00
2023-05-16T18:00:24.894Z,100.00
2023-05-16T18:02:52.106Z,100.00
2023-05-16T18:05:18.556Z,100.00
2023-05-16T18:07:44.966Z,100.00
2023-05-16T18:10:11.914Z,100.00
2023-05-16T18:12:38.803Z,100.00
2023-05-16T18:15:05.907Z,100.00
2023-05-16T18:17:33.917Z,100.00
2023-05-16T18:20:08.777Z,100.00
2023-05-16T18:22:36.368Z,100.00
2023-05-16T18:25:06.444Z,100.00
2023-05-16T18:27:33.488Z,100.00
2023-05-16T18:30:00.426Z,100.00
2023-05-16T18:32:39.173Z,100.00
2023-05-16T18:35:08.547Z,100.00
2023-05-16T18:37:35.240Z,100.00
2023-05-16T18:40:01.807Z,100.00
2023-05-16T18:42:28.264Z,100.00
2023-05-16T18:44:54.617Z,100.00
2023-05-16T18:47:21.045Z,100.00
2023-05-16T18:49:47.540Z,100.00
2023-05-16T18:52:14.214Z,100.00
2023-05-16T18:54:40.621Z,100.00
2023-05-16T18:57:07.792Z,100.00
2023-05-16T18:59:34.877Z,100.00
2023-05-16T19:02:01.660Z,100.00
2023-05-16T19:04:28.237Z,100.00
2023-05-16T19:06:56.429Z,100.00
2023-05-16T19:09:23.325Z,100.00
2023-05-16T19:11:49.966Z,100.00
2023-05-16T19:14:16.673Z,100.00
2023-05-16T19:16:43.176Z,100.00
2023-05-16T19:19:09.665Z,100.00
2023-05-16T19:21:36.511Z,100.00
2023-05-16T19:24:03.636Z,100.00
2023-05-16T19:26:30.961Z,100.00
2023-05-16T19:28:57.465Z,100.00
2023-05-16T19:31:23.910Z,100.00
2023-05-16T19:33:50.763Z,100.00
2023-05-16T19:36:17.760Z,100.00
2023-05-16T19:38:44.713Z,100.00
2023-05-16T19:41:11.250Z,100.00
2023-05-16T19:43:37.667Z,100.00
2023-05-16T19:46:04.466Z,100.00
2023-05-16T19:48:31.018Z,100.00
2023-05-16T19:50:57.922Z,100.00
2023-05-16T19:53:27.114Z,100.00
2023-05-16T19:55:53.476Z,100.00
2023-05-16T19:58:19.919Z,100.00
2023-05-16T20:00:47.067Z,100.00
2023-05-16T20:03:14.019Z,100.00
2023-05-16T20:05:40.922Z,100.00
2023-05-16T20:08:07.368Z,100.00
2023-05-16T20:10:34.819Z,100.00
2023-05-16T20:13:01.253Z,100.00
2023-05-16T20:15:28.021Z,100.00
2023-05-16T20:17:54.617Z,100.00
2023-05-16T20:20:21.241Z,100.00
2023-05-16T20:22:48.031Z,100.00
2023-05-16T20:25:14.482Z,100.00
2023-05-16T20:27:41.104Z,100.00
2023-05-16T20:30:08.010Z,100.00
2023-05-16T20:32:34.513Z,100.00
2023-05-16T20:35:01.242Z,100.00
2023-05-16T20:37:30.700Z,100.00
2023-05-16T20:39:57.072Z,100.00
2023-05-16T20:42:23.507Z,100.00
2023-05-16T20:44:49.941Z,100.00
2023-05-16T20:47:17.227Z,100.00
2023-05-16T20:49:43.965Z,100.00
2023-05-16T20:52:13.589Z,100.00
2023-05-16T20:54:41.837Z,100.00
2023-05-16T20:57:08.501Z,100.00
2023-05-16T20:59:37.669Z,100.00
2023-05-16T21:02:11.642Z,100.00
2023-05-16T21:04:38.875Z,100.00
2023-05-16T21:07:07.914Z,100.00
2023-05-16T21:09:36.758Z,100.00
2023-05-16T21:12:06.351Z,100.00
2023-05-16T21:14:32.722Z,100.00
2023-05-16T21:16:59.116Z,100.00
2023-05-16T21:19:25.693Z,100.00
2023-05-16T21:21:52.118Z,100.00
2023-05-16T21:24:18.490Z,100.00
2023-05-16T21:26:44.860Z,100.00
2023-05-16T21:29:14.179Z,100.00
2023-05-16T21:31:40.623Z,100.00
2023-05-16T21:34:08.477Z,100.00
2023-05-16T21:36:35.795Z,100.00
2023-05-16T21:39:02.142Z,100.00
2023-05-16T21:41:28.602Z,100.00
2023-05-16T21:43:54.973Z,100.00
2023-05-16T21:46:23.408Z,100.00
2023-05-16T21:48:50.100Z,100.00
2023-05-16T21:51:16.589Z,100.00
2023-05-16T21:53:43.006Z,100.00
2023-05-16T21:56:09.358Z,100.00
2023-05-16T21:58:35.799Z,100.00
2023-05-16T22:01:02.196Z,100.00
2023-05-16T22:03:28.710Z,100.00
2023-05-16T22:05:55.343Z,100.00
2023-05-16T22:08:21.682Z,100.00
2023-05-16T22:10:48.175Z,100.00
2023-05-16T22:13:14.771Z,100.00
2023-05-16T22:15:42.629Z,100.00
2023-05-16T22:18:13.114Z,100.00
2023-05-16T22:20:39.554Z,100.00
2023-05-16T22:23:06.010Z,100.00
2023-05-16T22:25:32.357Z,100.00
2023-05-16T22:27:58.791Z,100.00
2023-05-16T22:30:25.125Z,100.00
2023-05-16T22:32:51.554Z,100.00
2023-05-16T22:35:17.991Z,100.00
2023-05-16T22:37:44.360Z,100.00
2023-05-16T22:40:11.135Z,100.00
2023-05-16T22:42:37.558Z,100.00
2023-05-16T22:45:04.172Z,100.00
2023-05-16T22:47:30.624Z,100.00
2023-05-16T22:49:57.101Z,100.00
2023-05-16T22:52:23.492Z,100.00
2023-05-16T22:54:50.193Z,100.00
2023-05-16T22:57:16.593Z,100.00
2023-05-16T22:59:42.962Z,100.00
2023-05-16T23:02:09.331Z,100.00
2023-05-16T23:04:35.770Z,100.00
2023-05-16T23:07:02.243Z,100.00
2023-05-16T23:09:28.620Z,100.00
2023-05-16T23:11:54.962Z,100.00
2023-05-16T23:14:22.749Z,100.00
2023-05-16T23:16:49.127Z,100.00
2023-05-16T23:19:15.573Z,100.00
2023-05-16T23:21:42.085Z,100.00
2023-05-16T23:24:08.470Z,100.00
2023-05-16T23:26:34.908Z,100.00
2023-05-16T23:29:01.316Z,100.00
2023-05-16T23:31:27.718Z,100.00
2023-05-16T23:33:54.136Z,100.00
2023-05-16T23:36:20.581Z,100.00
2023-05-16T23:38:47.010Z,100.00
2023-05-16T23:41:13.413Z,100.00
2023-05-16T23:43:39.770Z,100.00
2023-05-16T23:46:06.448Z,100.00
2023-05-16T23:48:33.046Z,100.00
2023-05-16T23:50:59.639Z,100.00
2023-05-16T23:53:29.039Z,100.00
2023-05-16T23:55:55.497Z,100.00
2023-05-16T23:58:21.847Z,100.00
